createdAt,value
2022-08-05T00:00:23.205Z,55.86
2022-08-05T00:01:27.779Z,55.96
2022-08-05T00:02:23.262Z,56.07
2022-08-05T00:03:23.182Z,55.81
2022-08-05T00:04:23.170Z,55.95
2022-08-05T00:06:02.064Z,56.06
2022-08-05T00:06:30.761Z,56.35
2022-08-05T00:07:59.451Z,56.45
2022-08-05T00:08:34.823Z,56.43
2022-08-05T00:09:23.083Z,56.55
2022-08-05T00:10:27.247Z,56.57
2022-08-05T00:11:28.040Z,56.70
2022-08-05T00:12:23.049Z,56.56
2022-08-05T00:13:38.082Z,56.68
2022-08-05T00:14:27.505Z,56.37
2022-08-05T00:15:55.201Z,56.33
2022-08-05T00:16:35.909Z,55.92
2022-08-05T00:17:22.992Z,56.11
2022-08-05T00:18:22.987Z,56.43
2022-08-05T00:19:24.647Z,56.79
2022-08-05T00:20:22.932Z,56.80
2022-08-05T00:21:22.942Z,56.79
2022-08-05T00:22:22.967Z,56.99
2022-08-05T00:23:44.777Z,56.64
2022-08-05T00:24:24.822Z,56.88
2022-08-05T00:25:22.866Z,57.44
2022-08-05T00:26:22.892Z,57.21
2022-08-05T00:27:25.807Z,57.12
2022-08-05T00:28:29.675Z,57.05
2022-08-05T00:29:25.505Z,57.24
2022-08-05T00:30:29.060Z,56.98
2022-08-05T00:31:54.265Z,57.13
2022-08-05T00:32:22.798Z,57.10
2022-08-05T00:34:54.550Z,57.51
2022-08-05T00:35:09.530Z,57.59
2022-08-05T00:35:22.723Z,57.83
2022-08-05T00:37:11.496Z,58.04
2022-08-05T00:37:22.717Z,58.00
2022-08-05T00:38:28.758Z,58.18
2022-08-05T00:39:22.748Z,58.36
2022-08-05T00:40:27.236Z,58.43
2022-08-05T00:41:22.682Z,58.39
2022-08-05T00:42:32.095Z,58.52
2022-08-05T00:43:22.692Z,59.39
2022-08-05T00:44:23.215Z,59.92
2022-08-05T00:45:27.992Z,59.84
2022-08-05T00:46:42.535Z,60.09
2022-08-05T00:47:22.662Z,60.35
2022-08-05T00:48:27.482Z,60.43
2022-08-05T00:49:22.550Z,61.14
2022-08-05T00:50:25.101Z,61.56
2022-08-05T00:51:51.515Z,61.97
2022-08-05T00:52:28.611Z,62.79
2022-08-05T00:53:45.227Z,62.58
2022-08-05T00:54:22.504Z,62.93
2022-08-05T00:55:22.480Z,63.78
2022-08-05T00:56:22.979Z,63.54
2022-08-05T00:57:22.948Z,64.25
2022-08-05T00:58:27.529Z,63.49
2022-08-05T00:59:22.430Z,63.37
2022-08-05T01:00:22.413Z,63.78
2022-08-05T01:01:43.008Z,65.13
2022-08-05T01:02:22.376Z,65.20
2022-08-05T01:03:23.450Z,65.19
2022-08-05T01:04:29.680Z,65.02
2022-08-05T01:05:22.339Z,64.73
2022-08-05T01:06:22.326Z,65.36
2022-08-05T01:07:22.312Z,66.41
2022-08-05T01:08:30.251Z,65.99
2022-08-05T01:09:22.309Z,64.60
2022-08-05T01:10:22.276Z,65.15
2022-08-05T01:11:33.540Z,65.70
2022-08-05T01:12:22.301Z,65.97
2022-08-05T01:13:27.346Z,65.98
2022-08-05T01:14:27.776Z,65.93
2022-08-05T01:15:36.213Z,66.51
2022-08-05T01:16:26.293Z,66.35
2022-08-05T01:17:22.438Z,66.30
2022-08-05T01:18:22.177Z,66.22
2022-08-05T01:19:22.283Z,65.54
2022-08-05T01:20:22.295Z,65.71
2022-08-05T01:21:23.018Z,65.92
2022-08-05T01:22:23.977Z,65.47
2022-08-05T01:23:23.487Z,64.96
2022-08-05T01:24:22.163Z,64.93
2022-08-05T01:25:22.101Z,64.54
2022-08-05T01:26:22.101Z,64.74
2022-08-05T01:27:22.268Z,64.87
2022-08-05T01:28:22.076Z,64.50
2022-08-05T01:29:23.214Z,64.21
2022-08-05T01:30:34.716Z,64.17
2022-08-05T01:31:22.004Z,64.50
2022-08-05T01:32:22.013Z,65.20
2022-08-05T01:33:21.964Z,65.27
2022-08-05T01:34:21.973Z,64.86
2022-08-05T01:35:50.780Z,65.24
2022-08-05T01:36:28.183Z,66.47
2022-08-05T01:37:25.150Z,67.00
2022-08-05T01:38:24.649Z,66.61
2022-08-05T01:39:45.866Z,66.85
2022-08-05T01:40:21.924Z,67.30
2022-08-05T01:41:22.057Z,68.33
2022-08-05T01:42:21.859Z,68.70
2022-08-05T01:43:21.980Z,68.36
2022-08-05T01:44:21.869Z,68.29
2022-08-05T01:45:21.823Z,68.07
2022-08-05T01:46:43.184Z,67.92
2022-08-05T01:47:22.123Z,68.15
2022-08-05T01:48:21.780Z,68.30
2022-08-05T01:49:23.918Z,68.74
2022-08-05T01:50:28.854Z,68.59
2022-08-05T01:51:21.756Z,69.32
2022-08-05T01:52:21.739Z,69.39
2022-08-05T01:53:57.886Z,69.41
2022-08-05T01:54:25.535Z,69.19
2022-08-05T01:55:21.682Z,68.88
2022-08-05T01:58:29.707Z,68.84
2022-08-05T01:58:45.760Z,68.67
2022-08-05T01:58:51.644Z,69.31
2022-08-05T01:59:51.190Z,69.18
2022-08-05T02:00:51.132Z,69.09
2022-08-05T02:01:51.180Z,69.32
2022-08-05T02:02:54.517Z,69.33
2022-08-05T02:03:51.106Z,69.82
2022-08-05T02:04:51.117Z,70.08
2022-08-05T02:05:51.073Z,70.15
2022-08-05T02:06:51.048Z,70.20
2022-08-05T02:07:57.897Z,70.46
2022-08-05T02:08:54.869Z,70.64
2022-08-05T02:09:51.152Z,70.93
2022-08-05T02:10:51.030Z,70.80
2022-08-05T02:11:52.489Z,71.44
2022-08-05T02:12:51.176Z,71.52
2022-08-05T02:13:53.749Z,71.62
2022-08-05T02:14:50.943Z,71.77
2022-08-05T02:15:50.918Z,71.75
2022-08-05T02:16:52.258Z,72.27
2022-08-05T02:18:31.604Z,72.12
2022-08-05T02:18:50.911Z,72.04
2022-08-05T02:19:50.936Z,71.88
2022-08-05T02:20:50.857Z,71.94
2022-08-05T02:21:50.863Z,72.70
2022-08-05T02:22:50.838Z,73.05
2022-08-05T02:23:50.828Z,73.45
2022-08-05T02:24:51.459Z,73.20
2022-08-05T02:25:50.805Z,73.11
2022-08-05T02:26:53.898Z,72.89
2022-08-05T02:27:59.698Z,72.72
2022-08-05T02:28:50.777Z,72.71
2022-08-05T02:29:59.038Z,72.72
2022-08-05T02:30:54.164Z,72.81
2022-08-05T02:31:50.727Z,73.81
2022-08-05T02:32:50.737Z,74.05
2022-08-05T02:33:57.325Z,73.88
2022-08-05T02:34:54.674Z,73.89
2022-08-05T02:35:58.944Z,73.77
2022-08-05T02:36:50.679Z,74.03
2022-08-05T02:37:53.985Z,74.14
2022-08-05T02:38:53.601Z,74.64
2022-08-05T02:39:51.688Z,74.94
2022-08-05T02:40:50.598Z,75.04
2022-08-05T02:42:00.614Z,74.90
2022-08-05T02:42:52.813Z,74.87
2022-08-05T02:44:06.431Z,74.83
2022-08-05T02:44:50.545Z,74.95
2022-08-05T02:45:52.239Z,74.94
2022-08-05T02:46:58.498Z,75.04
2022-08-05T02:48:06.901Z,75.30
2022-08-05T02:48:50.508Z,75.44
2022-08-05T02:49:50.482Z,75.40
2022-08-05T02:50:50.465Z,75.48
2022-08-05T02:52:04.088Z,75.83
2022-08-05T02:52:50.464Z,76.19
2022-08-05T02:53:50.430Z,76.21
2022-08-05T02:54:51.117Z,76.25
2022-08-05T02:55:54.671Z,76.18
2022-08-05T02:56:50.382Z,76.36
2022-08-05T02:58:10.735Z,77.23
2022-08-05T02:58:51.629Z,77.30
2022-08-05T02:59:52.064Z,77.48
2022-08-05T03:00:50.344Z,76.96
2022-08-05T03:01:50.377Z,76.86
2022-08-05T03:02:50.341Z,76.54
2022-08-05T03:04:02.821Z,76.48
2022-08-05T03:04:53.329Z,76.53
2022-08-05T03:06:55.756Z,76.69
2022-08-05T03:07:03.512Z,76.83
2022-08-05T03:08:07.357Z,76.91
2022-08-05T03:08:52.179Z,76.83
2022-08-05T03:09:51.966Z,76.80
2022-08-05T03:11:41.156Z,76.97
2022-08-05T03:11:58.674Z,76.98
2022-08-05T03:12:51.742Z,77.06
2022-08-05T03:13:51.731Z,77.11
2022-08-05T03:14:50.146Z,77.43
2022-08-05T03:15:50.147Z,77.82
2022-08-05T03:16:53.369Z,77.97
2022-08-05T03:17:50.120Z,78.12
2022-08-05T03:18:50.104Z,78.20
2022-08-05T03:19:50.090Z,78.28
2022-08-05T03:20:50.384Z,78.40
2022-08-05T03:21:50.164Z,78.56
2022-08-05T03:22:50.599Z,78.58
2022-08-05T03:23:50.027Z,79.01
2022-08-05T03:24:50.900Z,78.87
2022-08-05T03:26:04.761Z,78.65
2022-08-05T03:26:50.010Z,78.47
2022-08-05T03:27:59.253Z,78.44
2022-08-05T03:28:49.957Z,78.23
2022-08-05T03:30:08.264Z,77.66
2022-08-05T03:30:50.905Z,77.35
2022-08-05T03:31:57.107Z,76.80
2022-08-05T03:32:49.907Z,76.32
2022-08-05T03:33:52.750Z,76.06
2022-08-05T03:34:50.986Z,76.06
2022-08-05T03:35:49.992Z,75.88
2022-08-05T03:36:49.873Z,76.22
2022-08-05T03:37:49.880Z,76.26
2022-08-05T03:38:53.230Z,76.42
2022-08-05T03:39:59.487Z,76.34
2022-08-05T03:40:49.878Z,76.31
2022-08-05T03:41:49.810Z,76.24
2022-08-05T03:42:52.150Z,76.14
2022-08-05T03:44:08.597Z,76.49
2022-08-05T03:44:49.766Z,76.35
2022-08-05T03:45:57.910Z,76.35
2022-08-05T03:46:49.727Z,76.36
2022-08-05T03:47:49.748Z,76.59
2022-08-05T03:48:49.711Z,76.92
2022-08-05T03:49:51.870Z,76.56
2022-08-05T03:50:49.666Z,76.59
2022-08-05T03:52:48.289Z,76.66
2022-08-05T03:56:05.686Z,76.84
2022-08-05T03:56:27.903Z,76.56
2022-08-05T03:56:36.372Z,75.99
2022-08-05T03:57:29.085Z,75.87
2022-08-05T03:58:28.915Z,75.03
2022-08-05T03:59:25.826Z,74.85
2022-08-05T04:00:25.798Z,74.77
2022-08-05T04:01:25.862Z,74.41
2022-08-05T04:02:38.681Z,74.21
2022-08-05T04:03:28.864Z,73.93
2022-08-05T04:04:26.493Z,73.59
2022-08-05T04:05:25.756Z,73.38
2022-08-05T04:06:25.732Z,73.35
2022-08-05T04:07:25.887Z,73.12
2022-08-05T04:08:34.712Z,73.08
2022-08-05T04:09:26.114Z,72.86
2022-08-05T04:10:27.960Z,72.59
2022-08-05T04:11:25.667Z,72.30
2022-08-05T04:12:25.667Z,72.01
2022-08-05T04:13:25.652Z,71.61
2022-08-05T04:14:30.116Z,71.77
2022-08-05T04:15:25.613Z,71.22
2022-08-05T04:16:32.299Z,71.05
2022-08-05T04:17:25.946Z,71.30
2022-08-05T04:18:25.719Z,71.15
2022-08-05T04:19:25.573Z,71.41
2022-08-05T04:20:25.552Z,71.12
2022-08-05T04:22:09.084Z,71.14
2022-08-05T04:22:25.518Z,70.94
2022-08-05T04:24:01.091Z,70.56
2022-08-05T04:24:25.492Z,70.37
2022-08-05T04:25:56.948Z,70.36
2022-08-05T04:26:25.491Z,70.60
2022-08-05T04:27:33.122Z,70.68
2022-08-05T04:28:28.502Z,70.44
2022-08-05T04:29:27.180Z,70.60
2022-08-05T04:30:26.550Z,70.79
2022-08-05T04:31:27.715Z,70.63
2022-08-05T04:32:31.039Z,70.64
2022-08-05T04:33:54.875Z,70.74
2022-08-05T04:34:32.561Z,70.98
2022-08-05T04:35:25.349Z,70.77
2022-08-05T04:36:45.500Z,70.62
2022-08-05T04:38:02.932Z,70.70
2022-08-05T04:38:39.714Z,70.63
2022-08-05T04:39:25.364Z,70.57
2022-08-05T04:40:25.278Z,70.20
2022-08-05T04:41:34.159Z,69.98
2022-08-05T04:42:25.618Z,69.83
2022-08-05T04:43:26.046Z,69.92
2022-08-05T04:44:29.846Z,69.93
2022-08-05T04:45:30.989Z,69.97
2022-08-05T04:46:27.923Z,69.88
2022-08-05T04:47:25.528Z,69.96
2022-08-05T04:48:27.854Z,69.68
2022-08-05T04:49:38.689Z,69.87
2022-08-05T04:50:37.233Z,69.95
2022-08-05T04:51:25.138Z,69.66
2022-08-05T04:52:27.601Z,69.65
2022-08-05T04:53:25.129Z,69.57
2022-08-05T04:54:25.094Z,69.86
2022-08-05T04:56:00.106Z,70.08
2022-08-05T04:56:34.451Z,69.70
2022-08-05T04:57:28.365Z,69.91
2022-08-05T04:58:25.062Z,69.77
2022-08-05T04:59:38.546Z,69.50
2022-08-05T05:00:25.022Z,69.55
2022-08-05T05:02:06.139Z,69.21
2022-08-05T05:02:37.540Z,69.43
2022-08-05T05:03:24.991Z,69.36
2022-08-05T05:04:24.969Z,68.94
2022-08-05T05:05:28.868Z,69.16
2022-08-05T05:06:39.017Z,69.71
2022-08-05T05:07:29.769Z,69.73
2022-08-05T05:08:26.594Z,69.49
2022-08-05T05:09:24.934Z,69.62
2022-08-05T05:10:24.899Z,69.48
2022-08-05T05:11:24.868Z,68.94
2022-08-05T05:12:24.854Z,69.46
2022-08-05T05:13:24.840Z,69.05
2022-08-05T05:14:27.909Z,68.90
2022-08-05T05:15:57.291Z,69.11
2022-08-05T05:16:24.834Z,69.19
2022-08-05T05:17:55.949Z,69.49
2022-08-05T05:18:31.610Z,68.78
2022-08-05T05:19:26.589Z,68.50
2022-08-05T05:20:28.519Z,68.71
2022-08-05T05:21:27.200Z,69.20
2022-08-05T05:22:26.575Z,68.18
2022-08-05T05:23:24.735Z,68.41
2022-08-05T05:24:56.200Z,68.04
2022-08-05T05:25:32.547Z,68.20
2022-08-05T05:26:28.571Z,68.49
2022-08-05T05:27:24.951Z,68.11
2022-08-05T05:28:24.855Z,67.62
2022-08-05T05:29:24.656Z,67.77
2022-08-05T05:30:29.063Z,67.87
2022-08-05T05:31:24.642Z,67.72
2022-08-05T05:32:24.618Z,67.73
2022-08-05T05:33:24.609Z,68.02
2022-08-05T05:34:27.037Z,67.64
2022-08-05T05:35:24.557Z,67.68
2022-08-05T05:36:24.537Z,67.23
2022-08-05T05:37:37.327Z,67.57
2022-08-05T05:38:27.533Z,67.58
2022-08-05T05:39:24.584Z,67.79
2022-08-05T05:40:26.040Z,67.70
2022-08-05T05:41:24.501Z,68.37
2022-08-05T05:42:24.486Z,68.38
2022-08-05T05:43:56.382Z,68.02
2022-08-05T05:44:36.611Z,68.06
2022-08-05T05:45:24.673Z,68.55
2022-08-05T05:46:24.429Z,68.39
2022-08-05T05:47:30.199Z,68.17
2022-08-05T05:48:27.762Z,68.44
2022-08-05T05:49:24.393Z,68.27
2022-08-05T05:50:24.356Z,68.33
2022-08-05T05:51:24.349Z,68.24
2022-08-05T05:52:28.300Z,68.27
2022-08-05T05:53:24.338Z,68.34
2022-08-05T05:54:49.687Z,68.20
2022-08-05T05:55:24.326Z,67.87
2022-08-05T05:56:26.114Z,68.20
2022-08-05T05:57:24.444Z,68.09
2022-08-05T05:58:31.762Z,68.15
2022-08-05T05:59:24.252Z,68.01
2022-08-05T06:00:27.544Z,68.14
2022-08-05T06:01:24.229Z,67.96
2022-08-05T06:02:32.436Z,68.23
2022-08-05T06:03:40.039Z,68.18
2022-08-05T06:04:24.247Z,68.07
2022-08-05T06:05:24.201Z,68.13
2022-08-05T06:06:24.153Z,68.34
2022-08-05T06:07:24.414Z,68.75
2022-08-05T06:08:32.600Z,68.71
2022-08-05T06:09:27.475Z,69.16
2022-08-05T06:10:24.128Z,68.88
2022-08-05T06:11:24.157Z,68.61
2022-08-05T06:12:24.094Z,68.61
2022-08-05T06:13:24.069Z,68.63
2022-08-05T06:14:24.048Z,68.59
2022-08-05T06:15:24.506Z,68.42
2022-08-05T06:16:37.183Z,68.26
2022-08-05T06:17:24.627Z,67.89
2022-08-05T06:18:31.051Z,67.81
2022-08-05T06:19:34.009Z,67.84
2022-08-05T06:20:24.035Z,67.68
2022-08-05T06:21:24.030Z,67.60
2022-08-05T06:22:23.972Z,67.43
2022-08-05T06:23:23.939Z,67.49
2022-08-05T06:24:25.740Z,67.31
2022-08-05T06:25:59.302Z,66.91
2022-08-05T06:26:25.094Z,66.97
2022-08-05T06:28:11.815Z,66.74
2022-08-05T06:28:28.501Z,66.35
2022-08-05T06:29:48.864Z,66.57
2022-08-05T06:30:23.844Z,66.71
2022-08-05T06:31:30.480Z,66.16
2022-08-05T06:32:25.889Z,66.04
2022-08-05T06:34:00.484Z,65.60
2022-08-05T06:34:23.820Z,65.35
2022-08-05T06:36:03.485Z,65.22
2022-08-05T06:36:26.016Z,65.40
2022-08-05T06:37:55.817Z,65.43
2022-08-05T06:38:36.772Z,66.19
2022-08-05T06:39:24.685Z,66.35
2022-08-05T06:40:28.067Z,66.51
2022-08-05T06:41:23.727Z,66.00
2022-08-05T06:42:23.686Z,66.21
2022-08-05T06:43:57.743Z,65.76
2022-08-05T06:44:23.689Z,65.71
2022-08-05T06:46:02.915Z,65.92
2022-08-05T06:46:23.634Z,65.90
2022-08-05T06:48:11.634Z,65.60
2022-08-05T06:48:58.570Z,65.24
2022-08-05T06:50:01.864Z,65.26
2022-08-05T06:50:23.751Z,65.70
2022-08-05T06:51:29.296Z,65.83
2022-08-05T06:52:37.051Z,65.62
2022-08-05T06:53:28.565Z,66.06
2022-08-05T06:54:25.800Z,66.02
2022-08-05T06:55:23.507Z,66.06
2022-08-05T06:56:26.313Z,65.61
2022-08-05T06:57:57.427Z,65.53
2022-08-05T06:58:29.682Z,66.33
2022-08-05T06:59:23.497Z,66.40
2022-08-05T07:00:24.709Z,66.05
2022-08-05T07:01:23.546Z,66.09
2022-08-05T07:02:23.461Z,65.40
2022-08-05T07:03:32.310Z,65.35
2022-08-05T07:04:23.439Z,65.51
2022-08-05T07:05:37.198Z,65.09
2022-08-05T07:06:23.404Z,64.73
2022-08-05T07:07:35.496Z,64.54
2022-08-05T07:08:23.393Z,64.30
2022-08-05T07:09:24.899Z,64.30
2022-08-05T07:10:23.369Z,64.21
2022-08-05T07:11:25.510Z,64.24
2022-08-05T07:12:23.309Z,64.68
2022-08-05T07:13:37.228Z,64.40
2022-08-05T07:14:29.538Z,64.38
2022-08-05T07:15:34.324Z,63.97
2022-08-05T07:17:56.597Z,63.96
2022-08-05T07:18:08.445Z,64.31
2022-08-05T07:18:28.936Z,64.50
2022-08-05T07:20:10.508Z,64.90
2022-08-05T07:20:37.052Z,65.07
2022-08-05T07:21:25.897Z,65.04
2022-08-05T07:22:28.373Z,64.24
2022-08-05T07:23:26.227Z,63.86
2022-08-05T07:24:23.142Z,63.24
2022-08-05T07:25:55.217Z,63.11
2022-08-05T07:26:25.652Z,63.06
2022-08-05T07:27:23.289Z,62.99
2022-08-05T07:28:23.096Z,62.86
2022-08-05T07:30:22.305Z,62.99
2022-08-05T07:30:38.377Z,62.19
2022-08-05T07:31:40.636Z,61.76
2022-08-05T07:32:26.127Z,61.90
2022-08-05T07:33:36.834Z,62.28
2022-08-05T07:34:28.450Z,62.40
2022-08-05T07:36:01.625Z,62.89
2022-08-05T07:36:24.052Z,62.89
2022-08-05T07:37:23.316Z,62.66
2022-08-05T07:38:32.284Z,62.80
2022-08-05T07:39:24.807Z,62.82
2022-08-05T07:40:26.739Z,62.76
2022-08-05T07:42:08.364Z,62.73
2022-08-05T07:42:33.384Z,62.51
2022-08-05T07:43:22.929Z,62.80
2022-08-05T07:44:22.941Z,62.52
2022-08-05T07:45:56.608Z,62.51
2022-08-05T07:46:25.351Z,61.91
2022-08-05T07:47:23.091Z,62.28
2022-08-05T07:49:01.013Z,62.70
2022-08-05T07:49:22.859Z,62.76
2022-08-05T07:50:28.934Z,63.27
2022-08-05T07:51:23.629Z,62.63
2022-08-05T07:52:23.900Z,62.79
2022-08-05T07:53:22.778Z,62.53
2022-08-05T07:54:23.232Z,62.71
2022-08-05T07:56:04.905Z,63.53
2022-08-05T07:57:00.887Z,63.69
2022-08-05T07:57:56.339Z,63.12
2022-08-05T07:58:58.996Z,63.33
2022-08-05T07:59:23.373Z,63.05
2022-08-05T08:00:22.702Z,63.08
2022-08-05T08:01:22.732Z,63.05
2022-08-05T08:02:22.694Z,62.49
2022-08-05T08:03:22.672Z,61.66
2022-08-05T08:04:34.347Z,61.53
2022-08-05T08:05:22.659Z,61.55
2022-08-05T08:06:22.655Z,61.58
2022-08-05T08:07:23.007Z,62.03
2022-08-05T08:08:22.597Z,62.18
2022-08-05T08:09:22.928Z,61.98
2022-08-05T08:10:22.561Z,61.74
2022-08-05T08:11:27.754Z,62.08
2022-08-05T08:12:35.210Z,62.24
2022-08-05T08:13:28.825Z,62.27
2022-08-05T08:14:22.525Z,62.72
2022-08-05T08:16:35.948Z,62.67
2022-08-05T08:16:55.904Z,62.88
2022-08-05T08:17:22.918Z,63.17
2022-08-05T08:18:22.465Z,63.28
2022-08-05T08:20:22.066Z,63.48
2022-08-05T08:21:02.343Z,63.66
2022-08-05T08:21:22.478Z,62.70
2022-08-05T08:22:22.454Z,62.70
2022-08-05T08:24:03.591Z,62.49
2022-08-05T08:24:22.414Z,61.89
2022-08-05T08:25:26.519Z,61.56
2022-08-05T08:26:26.895Z,61.22
2022-08-05T08:27:22.661Z,61.08
2022-08-05T08:28:36.631Z,60.77
2022-08-05T08:30:04.280Z,60.23
2022-08-05T08:30:32.287Z,60.38
2022-08-05T08:31:22.308Z,60.42
2022-08-05T08:32:27.973Z,60.35
2022-08-05T08:33:22.254Z,61.07
2022-08-05T08:34:30.256Z,60.61
2022-08-05T08:35:22.246Z,60.76
2022-08-05T08:36:37.584Z,61.30
2022-08-05T08:37:27.842Z,61.52
2022-08-05T08:38:35.486Z,61.82
2022-08-05T08:39:22.228Z,62.25
2022-08-05T08:40:22.184Z,62.33
2022-08-05T08:41:22.163Z,62.66
2022-08-05T08:42:33.801Z,62.94
2022-08-05T08:44:57.933Z,62.84
2022-08-05T08:45:29.623Z,63.20
2022-08-05T08:45:35.832Z,63.26
2022-08-05T08:46:35.856Z,63.15
2022-08-05T08:48:06.775Z,63.51
2022-08-05T08:48:42.883Z,63.32
2022-08-05T08:50:13.106Z,63.68
2022-08-05T08:51:04.108Z,64.16
2022-08-05T08:52:06.144Z,64.39
2022-08-05T08:52:35.758Z,66.09
2022-08-05T08:53:35.709Z,67.09
2022-08-05T08:54:36.455Z,67.63
2022-08-05T08:56:04.899Z,68.21
2022-08-05T08:56:35.696Z,69.71
2022-08-05T08:57:42.355Z,69.74
2022-08-05T08:58:43.524Z,69.68
2022-08-05T08:59:35.673Z,70.11
2022-08-05T09:00:35.855Z,69.51
2022-08-05T09:01:35.639Z,70.80
2022-08-05T09:02:35.712Z,70.99
2022-08-05T09:03:40.361Z,70.89
2022-08-05T09:04:35.583Z,70.33
2022-08-05T09:05:38.847Z,71.27
2022-08-05T09:06:36.327Z,70.22
2022-08-05T09:07:39.878Z,71.36
2022-08-05T09:08:35.547Z,71.63
2022-08-05T09:09:35.886Z,71.23
2022-08-05T09:10:35.519Z,70.09
2022-08-05T09:11:51.414Z,70.80
2022-08-05T09:12:35.771Z,69.65
2022-08-05T09:14:09.232Z,69.14
2022-08-05T09:15:04.788Z,68.83
2022-08-05T09:15:36.954Z,69.36
2022-08-05T09:16:35.420Z,68.72
2022-08-05T09:17:42.498Z,68.93
2022-08-05T09:18:37.955Z,69.38
2022-08-05T09:19:36.638Z,69.36
2022-08-05T09:20:37.468Z,67.80
2022-08-05T09:22:21.939Z,68.20
2022-08-05T09:22:35.923Z,68.80
2022-08-05T09:23:43.308Z,67.30
2022-08-05T09:24:35.342Z,68.07
2022-08-05T09:26:02.468Z,67.45
2022-08-05T09:26:35.312Z,67.20
2022-08-05T09:28:04.384Z,67.62
2022-08-05T09:28:35.331Z,67.28
2022-08-05T09:29:35.271Z,67.27
2022-08-05T09:30:35.285Z,67.21
2022-08-05T09:32:39.967Z,67.35
2022-08-05T09:32:47.603Z,67.15
2022-08-05T09:33:35.452Z,67.26
2022-08-05T09:34:35.209Z,67.48
2022-08-05T09:35:35.194Z,67.03
2022-08-05T09:36:35.179Z,66.56
2022-08-05T09:38:17.510Z,66.43
2022-08-05T09:38:35.146Z,66.51
2022-08-05T09:39:44.694Z,66.87
2022-08-05T09:40:35.111Z,67.28
2022-08-05T09:41:39.107Z,66.29
2022-08-05T09:42:35.402Z,65.97
2022-08-05T09:43:40.834Z,65.41
2022-08-05T09:44:35.172Z,65.85
2022-08-05T09:46:06.696Z,65.26
2022-08-05T09:46:35.234Z,65.82
2022-08-05T09:47:55.276Z,66.35
2022-08-05T09:48:35.029Z,66.05
2022-08-05T09:49:40.473Z,66.36
2022-08-05T09:50:38.822Z,66.11
2022-08-05T09:51:36.619Z,66.24
2022-08-05T09:52:35.015Z,66.76
2022-08-05T09:53:54.313Z,66.76
2022-08-05T09:54:34.949Z,66.89
2022-08-05T09:55:58.238Z,67.41
2022-08-05T09:56:34.931Z,67.78
2022-08-05T09:57:35.337Z,68.23
2022-08-05T09:58:34.890Z,67.90
2022-08-05T09:59:37.164Z,68.61
2022-08-05T10:00:34.890Z,69.11
2022-08-05T10:01:34.839Z,69.47
2022-08-05T10:02:34.869Z,70.13
2022-08-05T10:03:56.935Z,70.73
2022-08-05T10:04:34.947Z,70.46
2022-08-05T10:05:34.786Z,70.15
2022-08-05T10:06:34.790Z,71.76
2022-08-05T10:08:34.512Z,71.02
2022-08-05T10:08:42.396Z,71.47
2022-08-05T10:09:45.023Z,72.05
2022-08-05T10:10:34.737Z,69.23
2022-08-05T10:11:35.256Z,70.77
2022-08-05T10:12:35.280Z,71.51
2022-08-05T10:13:45.697Z,71.44
2022-08-05T10:14:34.691Z,72.02
2022-08-05T10:15:34.675Z,71.85
2022-08-05T10:16:41.751Z,73.54
2022-08-05T10:17:37.782Z,77.83
2022-08-05T10:18:34.625Z,79.90
2022-08-05T10:20:04.305Z,81.29
2022-08-05T10:20:34.587Z,82.58
2022-08-05T10:21:35.369Z,84.53
2022-08-05T10:22:35.087Z,85.95
2022-08-05T10:23:59.799Z,84.89
2022-08-05T10:24:34.546Z,85.11
2022-08-05T10:25:34.521Z,84.48
2022-08-05T10:26:34.514Z,83.13
2022-08-05T10:28:13.434Z,81.97
2022-08-05T10:28:34.542Z,81.44
2022-08-05T10:30:41.212Z,80.86
2022-08-05T10:33:02.007Z,80.49
2022-08-05T10:33:09.355Z,79.51
2022-08-05T10:34:07.042Z,79.41
2022-08-05T10:35:05.231Z,80.10
2022-08-05T10:36:05.124Z,78.53
2022-08-05T10:37:05.098Z,77.98
2022-08-05T10:38:05.097Z,80.34
2022-08-05T10:39:11.737Z,79.77
2022-08-05T10:40:18.189Z,79.76
2022-08-05T10:41:05.142Z,78.33
2022-08-05T10:42:05.043Z,78.75
2022-08-05T10:43:05.022Z,78.81
2022-08-05T10:44:05.031Z,77.38
2022-08-05T10:45:21.291Z,76.61
2022-08-05T10:46:06.756Z,78.13
2022-08-05T10:47:04.970Z,77.67
2022-08-05T10:48:31.478Z,78.67
2022-08-05T10:49:08.050Z,78.31
2022-08-05T10:50:20.493Z,77.50
2022-08-05T10:51:04.931Z,76.56
2022-08-05T10:52:05.283Z,78.54
2022-08-05T10:53:04.909Z,76.66
2022-08-05T10:54:05.966Z,79.93
2022-08-05T10:55:04.896Z,81.26
2022-08-05T10:56:21.151Z,80.51
2022-08-05T10:57:04.844Z,78.87
2022-08-05T10:58:04.826Z,78.95
2022-08-05T10:59:12.282Z,79.51
2022-08-05T11:00:09.095Z,79.79
2022-08-05T11:01:04.777Z,81.73
2022-08-05T11:02:05.597Z,82.89
2022-08-05T11:03:23.831Z,82.17
2022-08-05T11:04:04.763Z,78.50
2022-08-05T11:05:04.738Z,81.97
2022-08-05T11:06:04.766Z,85.09
2022-08-05T11:07:04.712Z,86.15
2022-08-05T11:08:21.657Z,86.20
2022-08-05T11:09:04.699Z,86.15
2022-08-05T11:10:10.009Z,87.87
2022-08-05T11:11:14.549Z,87.01
2022-08-05T11:12:04.663Z,88.93
2022-08-05T11:13:04.618Z,88.33
2022-08-05T11:14:04.622Z,88.96
2022-08-05T11:15:19.857Z,87.27
2022-08-05T11:16:04.609Z,86.24
2022-08-05T11:17:14.232Z,85.31
2022-08-05T11:18:05.917Z,84.72
2022-08-05T11:20:11.015Z,82.53
2022-08-05T11:20:22.360Z,80.17
2022-08-05T11:21:06.504Z,79.37
2022-08-05T11:22:04.516Z,79.21
2022-08-05T11:23:09.007Z,79.09
2022-08-05T11:24:29.985Z,80.97
2022-08-05T11:26:03.589Z,82.15
2022-08-05T11:26:10.953Z,79.07
2022-08-05T11:27:04.450Z,76.35
2022-08-05T11:28:04.421Z,77.64
2022-08-05T11:29:12.053Z,76.48
2022-08-05T11:30:04.398Z,74.73
2022-08-05T11:31:06.455Z,73.26
2022-08-05T11:32:04.432Z,68.72
2022-08-05T11:33:04.380Z,66.97
2022-08-05T11:34:04.347Z,64.85
2022-08-05T11:35:04.380Z,66.65
2022-08-05T11:36:08.728Z,62.53
2022-08-05T11:37:55.121Z,63.29
2022-08-05T11:38:45.536Z,62.28
2022-08-05T11:39:04.391Z,59.84
2022-08-05T11:40:04.577Z,60.73
2022-08-05T11:41:35.555Z,62.67
2022-08-05T11:42:05.682Z,64.50
2022-08-05T11:43:04.278Z,64.77
2022-08-05T11:44:06.462Z,63.74
2022-08-05T11:45:05.320Z,65.97
2022-08-05T11:46:27.546Z,66.52
2022-08-05T11:47:10.440Z,67.74
2022-08-05T11:48:04.206Z,68.20
2022-08-05T11:49:04.177Z,66.33
2022-08-05T11:50:04.172Z,66.25
2022-08-05T11:51:04.182Z,66.59
2022-08-05T11:52:11.197Z,63.39
2022-08-05T11:53:04.143Z,61.56
2022-08-05T11:54:04.117Z,62.61
2022-08-05T11:55:07.564Z,61.45
2022-08-05T11:56:04.123Z,64.20
2022-08-05T11:57:07.703Z,64.09
2022-08-05T11:58:10.417Z,66.77
2022-08-05T11:59:04.076Z,65.33
2022-08-05T12:00:04.050Z,64.49
2022-08-05T12:01:04.604Z,64.05
2022-08-05T12:02:04.007Z,63.40
2022-08-05T12:03:04.079Z,63.09
2022-08-05T12:04:04.062Z,62.91
2022-08-05T12:05:07.662Z,62.16
2022-08-05T12:06:06.017Z,63.09
2022-08-05T12:07:03.949Z,62.16
2022-08-05T12:08:11.026Z,58.49
2022-08-05T12:09:03.969Z,57.55
2022-08-05T12:10:09.507Z,57.31
2022-08-05T12:11:05.799Z,57.37
2022-08-05T12:12:03.906Z,57.29
2022-08-05T12:13:03.873Z,58.15
2022-08-05T12:14:04.058Z,56.31
2022-08-05T12:15:03.924Z,54.87
2022-08-05T12:16:03.881Z,55.26
2022-08-05T12:17:03.882Z,57.53
2022-08-05T12:18:10.491Z,57.56
2022-08-05T12:19:03.847Z,56.48
2022-08-05T12:20:16.846Z,57.73
2022-08-05T12:21:03.832Z,55.93
2022-08-05T12:22:03.805Z,53.58
2022-08-05T12:23:03.810Z,52.80
2022-08-05T12:24:04.781Z,52.63
2022-08-05T12:25:03.785Z,51.09
2022-08-05T12:26:03.734Z,53.39
2022-08-05T12:27:09.693Z,54.50
2022-08-05T12:28:03.714Z,52.21
2022-08-05T12:29:03.733Z,50.98
2022-08-05T12:30:03.719Z,49.95
2022-08-05T12:31:03.655Z,51.19
2022-08-05T12:32:04.528Z,50.84
2022-08-05T12:33:07.330Z,49.53
2022-08-05T12:34:03.666Z,51.27
2022-08-05T12:35:04.149Z,52.37
2022-08-05T12:36:03.676Z,52.59
2022-08-05T12:37:03.652Z,52.14
2022-08-05T12:38:03.573Z,52.98
2022-08-05T12:39:03.615Z,53.69
2022-08-05T12:40:10.797Z,53.51
2022-08-05T12:41:03.584Z,53.48
2022-08-05T12:42:03.561Z,51.53
2022-08-05T12:43:03.554Z,49.64
2022-08-05T12:44:03.590Z,49.25
2022-08-05T12:45:03.540Z,47.98
2022-08-05T12:46:03.525Z,46.02
2022-08-05T12:47:03.681Z,46.20
2022-08-05T12:48:27.632Z,47.07
2022-08-05T12:49:13.210Z,46.46
2022-08-05T12:50:07.215Z,47.16
2022-08-05T12:51:03.457Z,45.88
2022-08-05T12:52:12.922Z,45.33
2022-08-05T12:53:03.421Z,44.51
2022-08-05T12:54:03.552Z,45.99
2022-08-05T12:55:03.424Z,45.95
2022-08-05T12:56:03.375Z,46.89